createdAt,value
2023-05-05T00:00:15.712Z,13.04
2023-05-05T00:01:49.063Z,15.00
2023-05-05T00:03:11.073Z,15.38
2023-05-05T00:04:32.546Z,15.88
2023-05-05T00:05:57.521Z,15.13
2023-05-05T00:07:19.673Z,14.04
2023-05-05T00:08:41.983Z,12.98
2023-05-05T00:10:06.620Z,12.93
2023-05-05T00:11:31.096Z,13.11
2023-05-05T00:12:54.935Z,11.27
2023-05-05T00:14:16.574Z,11.20
2023-05-05T00:15:38.213Z,11.43
2023-05-05T00:17:01.997Z,10.90
2023-05-05T00:18:23.821Z,10.31
2023-05-05T00:19:45.549Z,10.78
2023-05-05T00:21:09.559Z,11.04
2023-05-05T00:22:31.379Z,10.20
2023-05-05T00:24:00.800Z,10.59
2023-05-05T00:25:25.096Z,10.19
2023-05-05T00:26:46.375Z,10.31
2023-05-05T00:28:08.464Z,10.73
2023-05-05T00:29:32.709Z,9.47
2023-05-05T00:31:02.295Z,9.73
2023-05-05T00:32:23.798Z,9.53
2023-05-05T00:33:45.358Z,9.39
2023-05-05T00:35:14.574Z,10.02
2023-05-05T00:36:38.750Z,9.74
2023-05-05T00:38:17.060Z,10.47
2023-05-05T00:39:48.797Z,10.08
2023-05-05T00:41:11.067Z,9.96
2023-05-05T00:42:34.893Z,9.96
2023-05-05T00:43:56.648Z,9.89
2023-05-05T00:45:26.082Z,10.13
2023-05-05T00:46:47.750Z,10.77
2023-05-05T00:48:11.887Z,10.02
2023-05-05T00:49:34.168Z,10.44
2023-05-05T00:50:55.888Z,10.33
2023-05-05T00:52:19.886Z,10.73
2023-05-05T00:53:43.014Z,10.95
2023-05-05T00:55:12.566Z,10.45
2023-05-05T00:56:34.380Z,10.76
2023-05-05T00:57:58.380Z,10.52
2023-05-05T00:59:32.063Z,10.23
2023-05-05T01:00:56.548Z,10.59
2023-05-05T01:02:25.982Z,10.54
2023-05-05T01:03:59.669Z,10.89
2023-05-05T01:05:29.240Z,10.72
2023-05-05T01:07:01.033Z,9.75
2023-05-05T01:08:22.724Z,10.61
2023-05-05T01:09:44.498Z,10.71
2023-05-05T01:11:08.255Z,10.43
2023-05-05T01:12:41.907Z,10.38
2023-05-05T01:14:06.333Z,10.39
2023-05-05T01:15:39.638Z,9.78
2023-05-05T01:17:13.959Z,11.00
2023-05-05T01:18:35.721Z,11.13
2023-05-05T01:20:00.138Z,10.29
2023-05-05T01:21:23.375Z,10.59
2023-05-05T01:22:45.291Z,10.98
2023-05-05T01:24:07.781Z,10.31
2023-05-05T01:25:31.666Z,10.57
2023-05-05T01:26:55.857Z,10.11
2023-05-05T01:28:17.554Z,10.83
2023-05-05T01:29:51.453Z,11.49
2023-05-05T01:31:13.321Z,11.26
2023-05-05T01:32:37.656Z,11.41
2023-05-05T01:34:11.186Z,11.17
2023-05-05T01:35:33.250Z,10.87
2023-05-05T01:37:04.678Z,11.51
2023-05-05T01:38:29.236Z,11.15
2023-05-05T01:39:50.783Z,11.30
2023-05-05T01:41:12.899Z,11.86
2023-05-05T01:42:37.513Z,11.12
2023-05-05T01:44:01.687Z,11.73
2023-05-05T01:45:23.535Z,10.84
2023-05-05T01:46:47.306Z,11.92
2023-05-05T01:48:09.412Z,11.52
2023-05-05T01:49:33.384Z,11.94
2023-05-05T01:50:55.295Z,12.17
2023-05-05T01:52:18.930Z,11.29
2023-05-05T01:53:41.447Z,12.23
2023-05-05T01:55:04.577Z,12.17
2023-05-05T01:56:26.214Z,11.56
2023-05-05T01:57:56.892Z,11.89
2023-05-05T01:59:30.078Z,11.85
2023-05-05T02:01:03.930Z,12.23
2023-05-05T02:02:32.781Z,11.75
2023-05-05T02:03:57.869Z,11.99
2023-05-05T02:05:21.910Z,11.62
2023-05-05T02:06:51.708Z,10.90
2023-05-05T02:08:16.077Z,11.45
2023-05-05T02:09:38.097Z,11.46
2023-05-05T02:11:06.966Z,11.85
2023-05-05T02:12:28.819Z,11.45
2023-05-05T02:13:50.473Z,11.30
2023-05-05T02:15:11.872Z,11.88
2023-05-05T02:16:33.657Z,11.23
2023-05-05T02:17:57.855Z,11.24
2023-05-05T02:19:19.749Z,12.91
2023-05-05T02:20:43.220Z,12.22
2023-05-05T02:22:05.866Z,11.63
2023-05-05T02:23:28.202Z,12.16
2023-05-05T02:24:49.898Z,11.84
2023-05-05T02:26:12.204Z,12.39
2023-05-05T02:27:34.301Z,11.53
2023-05-05T02:28:56.263Z,11.58
2023-05-05T02:30:18.057Z,12.43
2023-05-05T02:31:39.738Z,11.50
2023-05-05T02:33:03.887Z,11.20
2023-05-05T02:34:28.084Z,12.03
2023-05-05T02:35:49.467Z,11.95
2023-05-05T02:37:12.006Z,12.23
2023-05-05T02:38:36.879Z,11.59
2023-05-05T02:39:59.128Z,11.93
2023-05-05T02:41:24.023Z,12.07
2023-05-05T02:42:46.389Z,10.91
2023-05-05T02:44:08.978Z,11.65
2023-05-05T02:45:31.323Z,11.39
2023-05-05T02:46:57.559Z,11.13
2023-05-05T02:48:21.383Z,10.87
2023-05-05T02:49:43.539Z,11.13
2023-05-05T02:51:07.829Z,11.56
2023-05-05T02:52:33.726Z,11.68
2023-05-05T02:53:55.766Z,11.58
2023-05-05T02:55:18.375Z,11.53
2023-05-05T02:56:42.680Z,12.05
2023-05-05T02:58:04.332Z,12.47
2023-05-05T02:59:27.257Z,11.86
2023-05-05T03:00:49.486Z,12.13
2023-05-05T03:02:15.040Z,12.10
2023-05-05T03:03:37.108Z,12.23
2023-05-05T03:04:58.932Z,12.14
2023-05-05T03:06:21.542Z,11.88
2023-05-05T03:07:43.553Z,11.69
2023-05-05T03:09:06.243Z,11.77
2023-05-05T03:10:35.757Z,12.18
2023-05-05T03:11:59.619Z,11.62
2023-05-05T03:13:21.802Z,12.10
2023-05-05T03:14:43.448Z,12.55
2023-05-05T03:16:06.988Z,12.61
2023-05-05T03:17:28.695Z,12.11
2023-05-05T03:18:53.859Z,12.23
2023-05-05T03:20:15.474Z,12.58
2023-05-05T03:21:38.563Z,12.22
2023-05-05T03:23:03.024Z,12.21
2023-05-05T03:24:24.604Z,12.35
2023-05-05T03:25:52.627Z,12.95
2023-05-05T03:27:26.944Z,12.62
2023-05-05T03:28:48.340Z,12.68
2023-05-05T03:30:14.576Z,11.82
2023-05-05T03:31:41.742Z,11.94
2023-05-05T03:33:22.952Z,11.82
2023-05-05T03:34:45.088Z,12.03
2023-05-05T03:36:08.028Z,11.02
2023-05-05T03:37:31.595Z,11.88
2023-05-05T03:38:53.320Z,11.97
2023-05-05T03:40:17.607Z,12.85
2023-05-05T03:41:39.263Z,12.62
2023-05-05T03:43:03.917Z,12.40
2023-05-05T03:44:26.379Z,12.27
2023-05-05T03:45:48.061Z,12.75
2023-05-05T03:47:10.135Z,12.23
2023-05-05T03:48:39.735Z,12.41
2023-05-05T03:50:02.260Z,12.59
2023-05-05T03:51:24.223Z,12.49
2023-05-05T03:52:46.043Z,12.77
2023-05-05T03:54:17.641Z,12.94
2023-05-05T03:55:42.049Z,11.86
2023-05-05T03:57:13.683Z,12.50
2023-05-05T03:58:36.040Z,12.48
2023-05-05T04:00:00.322Z,12.53
2023-05-05T04:01:23.378Z,13.08
2023-05-05T04:02:45.338Z,12.31
2023-05-05T04:04:10.292Z,12.38
2023-05-05T04:05:32.276Z,12.31
2023-05-05T04:06:53.817Z,12.81
2023-05-05T04:08:22.604Z,11.62
2023-05-05T04:09:44.733Z,12.23
2023-05-05T04:11:09.560Z,11.52
2023-05-05T04:12:31.849Z,12.28
2023-05-05T04:13:54.254Z,11.98
2023-05-05T04:15:18.674Z,12.08
2023-05-05T04:16:40.979Z,11.88
2023-05-05T04:18:03.458Z,11.44
2023-05-05T04:19:25.641Z,11.09
2023-05-05T04:20:56.855Z,11.32
2023-05-05T04:22:21.240Z,11.48
2023-05-05T04:23:53.487Z,11.46
2023-05-05T04:25:15.989Z,11.31
2023-05-05T04:26:38.560Z,11.54
2023-05-05T04:28:00.265Z,11.66
2023-05-05T04:29:29.812Z,11.53
2023-05-05T04:30:51.816Z,11.81
2023-05-05T04:32:13.564Z,11.51
2023-05-05T04:33:40.255Z,11.67
2023-05-05T04:35:02.202Z,11.78
2023-05-05T04:36:23.469Z,11.53
2023-05-05T04:37:54.865Z,11.66
2023-05-05T04:39:19.855Z,11.80
2023-05-05T04:40:41.740Z,10.77
2023-05-05T04:42:04.691Z,11.16
2023-05-05T04:43:26.192Z,11.74
2023-05-05T04:44:47.623Z,10.80
2023-05-05T04:46:10.047Z,10.79
2023-05-05T04:47:31.910Z,10.11
2023-05-05T04:48:53.887Z,11.31
2023-05-05T04:50:15.496Z,10.39
2023-05-05T04:51:37.039Z,11.25
2023-05-05T04:53:01.039Z,10.96
2023-05-05T04:54:23.208Z,11.46
2023-05-05T04:55:44.967Z,11.19
2023-05-05T04:57:07.404Z,11.73
2023-05-05T04:58:29.860Z,11.83
2023-05-05T04:59:54.036Z,11.15
2023-05-05T05:01:15.999Z,11.65
2023-05-05T05:02:38.222Z,11.88
2023-05-05T05:04:00.476Z,11.43
2023-05-05T05:05:30.294Z,12.14
2023-05-05T05:06:59.091Z,11.61
2023-05-05T05:08:23.168Z,12.04
2023-05-05T05:09:46.897Z,11.98
2023-05-05T05:11:13.873Z,11.68
2023-05-05T05:12:42.748Z,11.95
2023-05-05T05:14:08.060Z,11.76
2023-05-05T05:15:30.161Z,12.77
2023-05-05T05:16:52.502Z,12.07
2023-05-05T05:18:21.983Z,12.41
2023-05-05T05:19:44.156Z,12.17
2023-05-05T05:21:08.483Z,12.23
2023-05-05T05:22:30.429Z,11.85
2023-05-05T05:24:03.644Z,12.26
2023-05-05T05:25:33.095Z,12.12
2023-05-05T05:26:57.131Z,12.60
2023-05-05T05:28:26.611Z,12.06
2023-05-05T05:29:59.124Z,11.65
2023-05-05T05:31:20.809Z,12.58
2023-05-05T05:32:45.376Z,12.19
2023-05-05T05:34:07.594Z,12.04
2023-05-05T05:35:29.900Z,11.40
2023-05-05T05:36:51.316Z,11.47
2023-05-05T05:38:21.150Z,12.32
2023-05-05T05:39:46.009Z,11.94
2023-05-05T05:41:15.491Z,12.15
2023-05-05T05:42:44.686Z,12.29
2023-05-05T05:44:07.279Z,12.01
2023-05-05T05:45:29.239Z,11.35
2023-05-05T05:46:55.846Z,12.30
2023-05-05T05:48:18.114Z,12.74
2023-05-05T05:49:47.308Z,12.18
2023-05-05T05:51:11.672Z,11.53
2023-05-05T05:52:33.707Z,11.88
2023-05-05T05:53:58.949Z,11.77
2023-05-05T05:55:23.496Z,11.06
2023-05-05T05:56:45.580Z,10.50
2023-05-05T05:58:07.790Z,10.95
2023-05-05T05:59:32.084Z,11.05
2023-05-05T06:00:53.453Z,10.93
2023-05-05T06:02:28.332Z,11.79
2023-05-05T06:03:50.727Z,11.65
2023-05-05T06:05:13.088Z,11.36
2023-05-05T06:06:36.333Z,11.63
2023-05-05T06:07:58.220Z,11.89
2023-05-05T06:09:20.008Z,11.11
2023-05-05T06:10:42.311Z,10.56
2023-05-05T06:12:09.400Z,10.84
2023-05-05T06:13:31.134Z,10.86
2023-05-05T06:14:52.547Z,10.09
2023-05-05T06:16:14.597Z,9.62
2023-05-05T06:17:36.999Z,9.93
2023-05-05T06:18:58.574Z,9.63
2023-05-05T06:20:20.083Z,9.61
2023-05-05T06:21:44.121Z,8.99
2023-05-05T06:23:06.845Z,8.87
2023-05-05T06:24:32.025Z,9.07
2023-05-05T06:25:55.842Z,8.69
2023-05-05T06:27:17.470Z,8.80
2023-05-05T06:28:39.397Z,7.93
2023-05-05T06:30:01.261Z,8.18
2023-05-05T06:31:22.814Z,7.71
2023-05-05T06:32:44.639Z,7.49
2023-05-05T06:34:12.028Z,8.05
2023-05-05T06:35:34.475Z,7.30
2023-05-05T06:36:56.080Z,7.51
2023-05-05T06:38:24.773Z,7.84
2023-05-05T06:39:46.555Z,7.53
2023-05-05T06:41:08.283Z,7.06
2023-05-05T06:42:32.068Z,7.27
2023-05-05T06:43:53.858Z,7.99
2023-05-05T06:45:15.668Z,6.97
2023-05-05T06:46:37.500Z,6.96
2023-05-05T06:48:01.572Z,7.88
2023-05-05T06:49:23.184Z,7.30
2023-05-05T06:50:47.400Z,7.84
2023-05-05T06:52:09.506Z,7.33
2023-05-05T06:53:45.082Z,7.52
2023-05-05T06:55:07.093Z,6.55
2023-05-05T06:56:29.040Z,6.13
2023-05-05T06:57:58.274Z,6.27
2023-05-05T06:59:20.019Z,6.09
2023-05-05T07:00:42.310Z,5.98
2023-05-05T07:02:04.130Z,5.96
2023-05-05T07:03:25.957Z,5.45
2023-05-05T07:04:52.394Z,6.05
2023-05-05T07:06:14.543Z,6.36
2023-05-05T07:07:38.210Z,6.48
2023-05-05T07:09:02.695Z,6.42
2023-05-05T07:10:24.371Z,5.60
2023-05-05T07:11:46.667Z,6.81
2023-05-05T07:13:08.826Z,7.38
2023-05-05T07:14:30.671Z,6.38
2023-05-05T07:15:52.307Z,7.14
2023-05-05T07:17:14.213Z,7.27
2023-05-05T07:18:36.001Z,6.79
2023-05-05T07:19:57.945Z,4.90
2023-05-05T07:21:19.636Z,5.27
2023-05-05T07:22:41.508Z,5.52
2023-05-05T07:24:05.745Z,6.13
2023-05-05T07:25:27.857Z,6.27
2023-05-05T07:26:49.167Z,5.15
2023-05-05T07:28:11.452Z,4.94
2023-05-05T07:29:32.982Z,5.47
2023-05-05T07:30:54.735Z,5.69
2023-05-05T07:32:19.211Z,5.44
2023-05-05T07:33:41.266Z,5.30
2023-05-05T07:35:03.596Z,5.57
2023-05-05T07:36:25.277Z,5.64
2023-05-05T07:37:49.365Z,4.81
2023-05-05T07:39:21.815Z,4.63
2023-05-05T07:40:43.575Z,5.16
2023-05-05T07:42:06.751Z,5.50
2023-05-05T07:43:28.569Z,5.34
2023-05-05T07:44:50.352Z,5.77
2023-05-05T07:46:19.526Z,4.86
2023-05-05T07:47:41.697Z,5.26
2023-05-05T07:49:03.527Z,5.53
2023-05-05T07:50:28.068Z,5.30
2023-05-05T07:51:54.355Z,5.04
2023-05-05T07:53:18.330Z,5.70
2023-05-05T07:54:42.544Z,5.45
2023-05-05T07:56:04.297Z,5.57
2023-05-05T07:57:26.325Z,5.40
2023-05-05T07:58:48.088Z,5.62
2023-05-05T08:00:10.878Z,5.50
2023-05-05T08:01:38.226Z,5.34
2023-05-05T08:03:00.372Z,5.08
2023-05-05T08:04:22.780Z,5.35
2023-05-05T08:05:45.120Z,4.89
2023-05-05T08:07:08.064Z,5.10
2023-05-05T08:08:29.981Z,5.22
2023-05-05T08:09:51.647Z,5.35
2023-05-05T08:11:21.200Z,4.37
2023-05-05T08:12:45.273Z,4.73
2023-05-05T08:14:07.423Z,4.43
2023-05-05T08:15:33.925Z,4.51
2023-05-05T08:16:57.508Z,4.82
2023-05-05T08:18:21.357Z,3.93
2023-05-05T08:19:42.868Z,4.63
2023-05-05T08:21:16.289Z,4.68
2023-05-05T08:22:49.804Z,5.27
2023-05-05T08:24:13.788Z,4.87
2023-05-05T08:25:35.534Z,4.93
2023-05-05T08:26:56.761Z,4.68
2023-05-05T08:31:28.107Z,4.21
2023-05-05T08:32:52.172Z,4.59
2023-05-05T08:34:16.450Z,4.69
2023-05-05T08:35:38.311Z,4.61
2023-05-05T08:37:11.764Z,4.64
2023-05-05T08:38:33.401Z,4.20
2023-05-05T08:39:54.990Z,4.64
2023-05-05T08:41:16.784Z,4.16
2023-05-05T08:42:39.580Z,4.64
2023-05-05T08:44:06.670Z,4.86
2023-05-05T08:45:28.170Z,4.80
2023-05-05T08:46:50.195Z,4.97
2023-05-05T08:48:12.299Z,5.40
2023-05-05T08:49:36.179Z,5.01
2023-05-05T08:51:01.375Z,5.69
2023-05-05T08:52:24.586Z,5.75
2023-05-05T08:53:47.099Z,5.99
2023-05-05T08:55:16.772Z,5.77
2023-05-05T08:56:40.799Z,5.64
2023-05-05T08:58:06.145Z,5.47
2023-05-05T08:59:30.283Z,5.69
2023-05-05T09:00:51.692Z,5.67
2023-05-05T09:02:23.730Z,5.45
2023-05-05T09:03:47.509Z,5.15
2023-05-05T09:05:10.014Z,5.86
2023-05-05T09:06:33.734Z,5.62
2023-05-05T09:07:55.608Z,5.22
2023-05-05T09:09:36.804Z,5.67
2023-05-05T09:11:12.202Z,5.07
2023-05-05T09:12:36.388Z,5.15
2023-05-05T09:14:09.669Z,5.48
2023-05-05T09:15:34.278Z,5.56
2023-05-05T09:16:56.058Z,5.42
2023-05-05T09:18:20.185Z,4.93
2023-05-05T09:19:42.096Z,5.55
2023-05-05T09:21:03.788Z,5.56
2023-05-05T09:22:25.205Z,5.46
2023-05-05T09:23:47.137Z,5.42
2023-05-05T09:25:09.111Z,5.82
2023-05-05T09:26:30.971Z,5.84
2023-05-05T09:27:52.824Z,5.16
2023-05-05T09:29:14.912Z,5.51
2023-05-05T09:30:36.805Z,5.41
2023-05-05T09:31:58.825Z,5.41
2023-05-05T09:33:20.928Z,6.31
2023-05-05T09:34:42.879Z,5.66
2023-05-05T09:36:04.608Z,5.51
2023-05-05T09:37:26.445Z,6.30
2023-05-05T09:38:50.692Z,5.61
2023-05-05T09:40:12.892Z,5.50
2023-05-05T09:41:34.895Z,5.72
2023-05-05T09:42:56.042Z,5.75
2023-05-05T09:44:20.091Z,5.76
2023-05-05T09:45:44.108Z,6.04
2023-05-05T09:47:22.031Z,6.17
2023-05-05T09:48:49.986Z,5.82
2023-05-05T09:50:14.276Z,5.88
2023-05-05T09:51:38.595Z,5.56
2023-05-05T09:53:00.557Z,5.81
2023-05-05T09:54:27.574Z,5.12
2023-05-05T09:56:00.419Z,6.11
2023-05-05T09:57:27.067Z,5.65
2023-05-05T09:58:48.501Z,5.56
2023-05-05T10:00:11.423Z,5.43
2023-05-05T10:01:44.996Z,5.67
2023-05-05T10:03:11.771Z,5.79
2023-05-05T10:04:45.404Z,5.18
2023-05-05T10:06:07.927Z,5.43
2023-05-05T10:07:30.363Z,5.52
2023-05-05T10:08:54.073Z,5.29
2023-05-05T10:10:16.481Z,6.05
2023-05-05T10:11:38.266Z,5.42
2023-05-05T10:12:59.776Z,5.65
2023-05-05T10:14:29.343Z,5.51
2023-05-05T10:16:09.972Z,5.41
2023-05-05T10:17:33.014Z,5.70
2023-05-05T10:18:56.952Z,5.22
2023-05-05T10:20:18.649Z,4.98
2023-05-05T10:21:47.842Z,5.44
2023-05-05T10:23:17.332Z,5.50
2023-05-05T10:24:38.818Z,4.94
2023-05-05T10:26:08.239Z,5.70
2023-05-05T10:27:32.330Z,5.78
2023-05-05T10:29:06.021Z,6.01
2023-05-05T10:30:30.247Z,5.28
2023-05-05T10:31:52.070Z,5.22
2023-05-05T10:33:30.093Z,4.70
2023-05-05T10:34:53.124Z,5.17
2023-05-05T10:36:26.960Z,5.49
2023-05-05T10:37:50.949Z,5.18
2023-05-05T10:39:15.043Z,5.40
2023-05-05T10:40:39.453Z,5.10
2023-05-05T10:42:02.314Z,5.49
2023-05-05T10:43:24.453Z,4.93
2023-05-05T10:44:46.017Z,5.53
2023-05-05T10:46:07.816Z,6.00
2023-05-05T10:47:31.758Z,6.09
2023-05-05T10:49:01.015Z,5.39
2023-05-05T10:50:22.678Z,5.72
2023-05-05T10:51:44.343Z,5.64
2023-05-05T10:53:13.906Z,5.26
2023-05-05T10:54:37.821Z,5.40
2023-05-05T10:55:59.910Z,5.27
2023-05-05T10:57:22.047Z,5.49
2023-05-05T10:58:55.387Z,5.30
2023-05-05T11:00:28.418Z,5.76
2023-05-05T11:02:01.398Z,5.47
2023-05-05T11:03:23.890Z,5.36
2023-05-05T11:04:45.461Z,5.54
2023-05-05T11:06:12.442Z,5.69
2023-05-05T11:07:46.139Z,5.63
2023-05-05T11:09:15.215Z,4.98
2023-05-05T11:10:50.897Z,4.96
2023-05-05T11:12:13.820Z,5.35
2023-05-05T11:13:49.505Z,5.01
2023-05-05T11:15:11.317Z,5.01
2023-05-05T11:16:32.889Z,5.17
2023-05-05T11:18:08.964Z,5.34
2023-05-05T11:19:42.389Z,5.03
2023-05-05T11:21:04.345Z,5.24
2023-05-05T11:22:28.040Z,5.48
2023-05-05T11:24:00.955Z,5.75
2023-05-05T11:25:24.963Z,5.63
2023-05-05T11:26:46.861Z,5.42
2023-05-05T11:28:39.954Z,6.14
2023-05-05T11:30:33.097Z,5.58
2023-05-05T11:32:04.801Z,6.05
2023-05-05T11:33:45.532Z,5.70
2023-05-05T11:35:21.884Z,5.72
2023-05-05T11:36:57.124Z,5.62
2023-05-05T11:38:38.253Z,5.91
2023-05-05T11:39:59.902Z,5.31
2023-05-05T11:41:21.728Z,5.06
2023-05-05T11:42:50.845Z,4.98
2023-05-05T11:44:27.024Z,5.24
2023-05-05T11:46:00.312Z,4.75
2023-05-05T11:47:24.800Z,5.13
2023-05-05T11:48:58.209Z,5.48
2023-05-05T11:50:30.200Z,5.77
2023-05-05T11:51:56.065Z,5.60
2023-05-05T11:53:18.247Z,5.45
2023-05-05T11:54:41.793Z,5.63
2023-05-05T11:56:05.842Z,5.78
2023-05-05T11:57:27.731Z,5.71
2023-05-05T11:59:10.998Z,5.83
2023-05-05T12:00:42.308Z,5.61
2023-05-05T12:02:03.960Z,6.04
2023-05-05T12:03:38.062Z,5.80
2023-05-05T12:05:04.828Z,5.38
2023-05-05T12:06:46.020Z,5.76
2023-05-05T12:08:08.374Z,5.49
2023-05-05T12:09:29.775Z,5.31
2023-05-05T12:11:06.160Z,5.36
2023-05-05T12:12:28.594Z,5.57
2023-05-05T12:13:49.947Z,5.89
2023-05-05T12:15:14.405Z,5.73
2023-05-05T12:16:38.541Z,5.81
2023-05-05T12:18:02.385Z,5.40
2023-05-05T12:19:33.206Z,5.41
2023-05-05T12:20:54.607Z,5.21
2023-05-05T12:22:19.450Z,5.16
2023-05-05T12:23:41.361Z,5.38
2023-05-05T12:25:02.627Z,5.62
2023-05-05T12:26:25.236Z,5.16
2023-05-05T12:27:49.650Z,5.28
2023-05-05T12:29:11.702Z,5.20
2023-05-05T12:30:33.641Z,5.37
2023-05-05T12:31:57.967Z,5.35
2023-05-05T12:33:20.578Z,5.43
2023-05-05T12:34:57.245Z,5.55
2023-05-05T12:36:19.413Z,5.60
2023-05-05T12:37:43.485Z,5.28
2023-05-05T12:39:05.520Z,5.75
2023-05-05T12:40:27.085Z,5.72
2023-05-05T12:41:50.833Z,5.87
2023-05-05T12:43:17.482Z,5.81
2023-05-05T12:44:43.580Z,5.51
2023-05-05T12:46:07.676Z,5.22
2023-05-05T12:47:36.935Z,5.48
2023-05-05T12:49:12.510Z,5.27
2023-05-05T12:50:34.581Z,5.16
2023-05-05T12:51:56.458Z,5.70
2023-05-05T12:53:20.784Z,5.07
2023-05-05T12:54:44.758Z,5.32
2023-05-05T12:56:06.940Z,5.70
2023-05-05T12:57:30.836Z,6.31
2023-05-05T12:58:55.073Z,6.16
2023-05-05T13:00:18.063Z,6.62
2023-05-05T13:01:42.192Z,7.46
2023-05-05T13:03:06.545Z,7.35
2023-05-05T13:04:30.636Z,7.71
2023-05-05T13:05:52.099Z,7.95
2023-05-05T13:07:21.155Z,7.33
2023-05-05T13:08:54.580Z,7.40
2023-05-05T13:10:16.850Z,7.76
2023-05-05T13:11:38.763Z,8.53
2023-05-05T13:13:00.192Z,8.19
2023-05-05T13:14:25.050Z,8.04
2023-05-05T13:16:00.892Z,7.31
2023-05-05T13:17:34.707Z,7.07
2023-05-05T13:19:08.440Z,7.54
2023-05-05T13:20:29.969Z,7.18
2023-05-05T13:21:51.643Z,7.03
2023-05-05T13:23:14.028Z,7.72
2023-05-05T13:24:49.762Z,7.69
2023-05-05T13:26:13.597Z,7.71
2023-05-05T13:27:37.682Z,7.61
2023-05-05T13:28:59.508Z,7.91
2023-05-05T13:30:21.473Z,6.92
2023-05-05T13:31:50.578Z,7.79
2023-05-05T13:33:14.824Z,7.85
2023-05-05T13:34:39.284Z,6.84
2023-05-05T13:36:08.879Z,7.21
2023-05-05T13:37:30.634Z,7.39
2023-05-05T13:38:54.673Z,7.27
2023-05-05T13:40:18.930Z,7.45
2023-05-05T13:41:40.727Z,7.30
2023-05-05T13:43:14.141Z,7.15
2023-05-05T13:44:37.896Z,7.14
2023-05-05T13:46:08.700Z,7.33
2023-05-05T13:47:39.062Z,7.15
2023-05-05T13:49:12.677Z,6.87
2023-05-05T13:50:36.540Z,6.91
2023-05-05T13:51:58.529Z,7.06
2023-05-05T13:53:40.210Z,7.08
2023-05-05T13:55:01.750Z,7.16
2023-05-05T13:56:37.979Z,6.52
2023-05-05T13:58:02.020Z,6.89
2023-05-05T13:59:25.789Z,6.46
2023-05-05T14:00:55.227Z,6.23
2023-05-05T14:02:24.925Z,6.66
2023-05-05T14:04:13.858Z,6.77
2023-05-05T14:05:42.800Z,6.24
2023-05-05T14:07:04.809Z,6.94
2023-05-05T14:08:46.059Z,6.91
2023-05-05T14:10:08.072Z,6.96
2023-05-05T14:11:31.518Z,7.08
2023-05-05T14:12:53.391Z,7.52
2023-05-05T14:14:16.308Z,6.82
2023-05-05T14:15:39.927Z,6.98
2023-05-05T14:17:01.983Z,6.94
2023-05-05T14:18:24.015Z,6.46
2023-05-05T14:19:45.726Z,6.59
2023-05-05T14:21:12.507Z,6.17
2023-05-05T14:22:38.387Z,6.24
2023-05-05T14:23:59.995Z,6.17
2023-05-05T14:25:24.673Z,6.65
2023-05-05T14:26:48.952Z,7.46
2023-05-05T14:28:11.528Z,6.14
2023-05-05T14:29:35.291Z,7.14
2023-05-05T14:30:57.198Z,6.26
2023-05-05T14:32:27.235Z,6.51
2023-05-05T14:33:56.571Z,6.57
2023-05-05T14:35:18.645Z,6.08
2023-05-05T14:36:41.149Z,6.24
2023-05-05T14:38:07.536Z,6.47
2023-05-05T14:39:31.888Z,5.93
2023-05-05T14:40:55.838Z,5.84
2023-05-05T14:42:17.882Z,5.91
2023-05-05T14:43:51.298Z,5.68
2023-05-05T14:45:21.189Z,5.31
2023-05-05T14:46:54.338Z,5.11
2023-05-05T14:48:16.661Z,5.50
2023-05-05T14:49:38.620Z,5.09
2023-05-05T14:51:02.999Z,4.86
2023-05-05T14:52:24.897Z,5.36
2023-05-05T14:53:58.506Z,5.84
2023-05-05T14:55:24.873Z,6.13
2023-05-05T14:56:46.982Z,5.75
2023-05-05T14:58:09.217Z,5.45
2023-05-05T14:59:33.556Z,5.17
2023-05-05T15:01:02.425Z,4.75
2023-05-05T15:02:24.509Z,5.12
2023-05-05T15:03:46.233Z,5.29
2023-05-05T15:05:08.418Z,5.16
2023-05-05T15:06:31.146Z,5.19
2023-05-05T15:07:52.517Z,5.24
2023-05-05T15:09:26.216Z,4.36
2023-05-05T15:10:48.108Z,5.82
2023-05-05T15:12:12.328Z,5.15
2023-05-05T15:13:45.935Z,5.39
2023-05-05T15:15:08.954Z,5.28
2023-05-05T15:16:31.719Z,5.36
2023-05-05T15:17:54.211Z,5.15
2023-05-05T15:19:27.713Z,4.61
2023-05-05T15:20:49.241Z,4.73
2023-05-05T15:22:13.563Z,5.07
2023-05-05T15:23:44.946Z,4.71
2023-05-05T15:25:09.788Z,5.29
2023-05-05T15:26:34.511Z,5.02
2023-05-05T15:28:10.924Z,4.45
2023-05-05T15:29:32.523Z,4.62
2023-05-05T15:30:54.062Z,4.90
2023-05-05T15:32:16.089Z,4.77
2023-05-05T15:33:38.737Z,4.92
2023-05-05T15:35:00.221Z,4.89
2023-05-05T15:36:30.092Z,5.04
2023-05-05T15:37:54.161Z,4.63
2023-05-05T15:39:23.367Z,4.82
2023-05-05T15:40:50.344Z,4.74
2023-05-05T15:42:12.540Z,4.47
2023-05-05T15:43:34.260Z,4.69
2023-05-05T15:44:55.539Z,4.88
2023-05-05T15:46:17.532Z,4.82
2023-05-05T15:47:41.542Z,5.05
2023-05-05T15:49:03.163Z,5.11
2023-05-05T15:50:24.947Z,4.73
2023-05-05T15:51:48.011Z,4.81
2023-05-05T15:53:10.109Z,4.77
2023-05-05T15:54:38.852Z,5.21
2023-05-05T15:56:00.431Z,5.50
2023-05-05T15:57:24.528Z,5.31
2023-05-05T15:58:45.880Z,5.20
2023-05-05T16:00:07.892Z,5.09
2023-05-05T16:01:29.361Z,5.28
2023-05-05T16:02:53.205Z,5.55
2023-05-05T16:04:22.234Z,5.01
2023-05-05T16:05:44.183Z,5.51
2023-05-05T16:07:05.940Z,5.35
2023-05-05T16:08:27.813Z,5.63
2023-05-05T16:09:49.378Z,5.71
2023-05-05T16:11:19.460Z,5.36
2023-05-05T16:12:44.460Z,5.44
2023-05-05T16:14:18.522Z,5.01
2023-05-05T16:15:49.698Z,5.36
2023-05-05T16:17:11.692Z,5.00
2023-05-05T16:18:33.528Z,5.61
2023-05-05T16:20:02.702Z,4.85
2023-05-05T16:21:36.653Z,5.71
2023-05-05T16:22:58.089Z,5.10
2023-05-05T16:24:19.958Z,5.23
2023-05-05T16:25:41.734Z,5.35
2023-05-05T16:27:03.105Z,5.51
2023-05-05T16:28:24.806Z,5.25
2023-05-05T16:29:49.257Z,5.14
2023-05-05T16:31:11.267Z,5.36
2023-05-05T16:32:40.543Z,5.14
2023-05-05T16:34:02.219Z,5.39
2023-05-05T16:35:33.700Z,4.59
2023-05-05T16:36:56.635Z,5.08
2023-05-05T16:38:18.214Z,5.51
2023-05-05T16:39:41.166Z,5.16
2023-05-05T16:41:12.638Z,5.20
2023-05-05T16:42:34.351Z,5.39
2023-05-05T16:43:58.321Z,4.97
2023-05-05T16:45:22.525Z,5.12
2023-05-05T16:46:44.522Z,5.24
2023-05-05T16:48:08.889Z,5.41
2023-05-05T16:49:31.247Z,5.52
2023-05-05T16:50:52.719Z,4.99
2023-05-05T16:52:14.744Z,4.95
2023-05-05T16:53:40.601Z,5.00
2023-05-05T16:55:04.851Z,5.04
2023-05-05T16:56:26.498Z,5.44
2023-05-05T16:57:50.444Z,5.37
2023-05-05T16:59:12.928Z,5.38
2023-05-05T17:00:54.439Z,5.37
2023-05-05T17:02:35.499Z,5.20
2023-05-05T17:04:20.112Z,4.85
2023-05-05T17:05:41.927Z,4.86
2023-05-05T17:07:03.380Z,5.04
2023-05-05T17:08:25.240Z,4.95
2023-05-05T17:09:47.270Z,5.25
2023-05-05T17:11:10.977Z,5.03
2023-05-05T17:12:33.252Z,5.30
2023-05-05T17:14:06.873Z,5.04
2023-05-05T17:15:30.835Z,5.35
2023-05-05T17:16:54.276Z,4.88
2023-05-05T17:18:16.446Z,5.29
2023-05-05T17:19:38.363Z,4.85
2023-05-05T17:21:07.776Z,5.70
2023-05-05T17:22:29.792Z,5.68
2023-05-05T17:23:53.311Z,5.24
2023-05-05T17:25:15.458Z,5.59
2023-05-05T17:26:38.776Z,5.36
2023-05-05T17:28:00.248Z,5.56
2023-05-05T17:29:23.301Z,5.16
2023-05-05T17:30:45.112Z,5.19
2023-05-05T17:32:06.927Z,5.20
2023-05-05T17:33:28.791Z,5.44
2023-05-05T17:34:50.658Z,5.06
2023-05-05T17:36:12.816Z,7.65
2023-05-05T17:37:41.927Z,6.89
2023-05-05T17:39:15.179Z,5.34
2023-05-05T17:40:39.756Z,5.14
2023-05-05T17:42:01.213Z,5.07
2023-05-05T17:43:22.968Z,5.15
2023-05-05T17:44:46.358Z,5.62
2023-05-05T17:46:09.461Z,5.43
2023-05-05T17:47:31.516Z,5.37
2023-05-05T17:49:00.850Z,6.06
2023-05-05T17:50:22.747Z,5.75
2023-05-05T17:51:44.257Z,5.74
2023-05-05T17:53:05.884Z,5.95
2023-05-05T17:54:27.980Z,6.12
2023-05-05T17:55:49.652Z,5.61
2023-05-05T17:57:23.438Z,5.69
2023-05-05T17:58:44.956Z,5.92
2023-05-05T18:00:08.994Z,5.92
2023-05-05T18:01:36.758Z,6.15
2023-05-05T18:02:57.951Z,6.11
2023-05-05T18:04:19.877Z,6.18
2023-05-05T18:05:44.025Z,5.96
2023-05-05T18:07:08.437Z,6.25
2023-05-05T18:08:30.865Z,6.48
2023-05-05T18:09:55.253Z,5.95
2023-05-05T18:11:28.766Z,6.05
2023-05-05T18:12:50.735Z,5.37
2023-05-05T18:14:24.502Z,6.14
2023-05-05T18:15:46.524Z,5.64
2023-05-05T18:17:08.123Z,5.80
2023-05-05T18:18:29.922Z,5.50
2023-05-05T18:19:51.684Z,5.14
2023-05-05T18:21:13.163Z,5.52
2023-05-05T18:22:34.863Z,5.68
2023-05-05T18:24:19.249Z,5.72
2023-05-05T18:25:45.179Z,5.80
2023-05-05T18:27:09.841Z,6.51
2023-05-05T18:28:31.994Z,6.20
2023-05-05T18:29:53.976Z,6.69
2023-05-05T18:31:15.831Z,6.40
2023-05-05T18:32:57.734Z,6.70
2023-05-05T18:34:20.446Z,7.03
2023-05-05T18:35:41.859Z,7.17
2023-05-05T18:37:11.572Z,6.87
2023-05-05T18:38:36.107Z,6.50
2023-05-05T18:39:57.679Z,6.55
2023-05-05T18:41:20.047Z,6.26